Дата Пункты Температура Давл., мм. Влажн., % Ветер Погодные явления
Воздуха Воды Направл. Скорость
02.09.19 06:00 Одесса 19.0 22.0 758 55 Пн 0 06 ГОДИН
02.09.19 03:00 Одесса 20.0 22.0 758 61 З 1 03 ГОДИНИ
01.09.19 09:00 Одесса 24.0 23.0 757 38 З 2 21 ГОДИНУ
01.09.19 06:00 Одесса 27.0 23.0 757 32 Пд 2 18 ГОДИН
01.09.19 03:00 Одесса 27.0 23.0 758 47 Пд 2 15 ГОДИН
01.09.19 12:00 Одесса 26.0 -40.0 758 70 Пд-С 2 12 ГОДИН
01.09.19 09:00 Одесса 24.0 -40.0 758 47 Пн 1 09 ГОДИН
01.09.19 06:00 Одесса 18.0 23.0 758 62 З 1 06 ГОДИН
01.09.19 03:00 Одесса 21.0 23.0 759 47 Пн 0 03 ГОДИНИ
31.08.19 09:00 Одесса 22.0 23.0 759 49 З 1 21 ГОДИНУ
31.08.19 06:00 Одесса 27.0 23.0 760 29 Пд 1 18 ГОДИН
31.08.19 03:00 Одесса 27.0 23.0 761 33 Пд 3 15 ГОДИН
31.08.19 12:00 Одесса 26.0 23.0 762 41 С 1 12 ГОДИН
31.08.19 09:00 Одесса 23.0 23.0 761 35 Пн 1 09 ГОДИН
31.08.19 06:00 Одесса 17.0 23.0 761 54 Пн 0 06 ГОДИН
31.08.19 03:00 Одесса 18.0 23.0 761 64 Пн 0 03 ГОДИНИ
30.08.19 09:00 Одесса 19.0 23.0 761 47 Пн 0 21 ГОДИНУ
30.08.19 06:00 Одесса 24.0 23.0 761 40 Пд 1 18 ГОДИН
30.08.19 03:00 Одесса 25.0 23.0 762 35 Пд-С 2 15 ГОДИН
30.08.19 12:00 Одесса 24.0 23.0 763 42 С 2 12 ГОДИН
Количество строк
1 2 3 4 5 6 7 8 9 10
Page 6 of 530